Overview Statistics Trail Chart Weather Telemetry Raw packets
 

This is the latest recevied weather packets stored in our database for station/object C31FR-13. If no packets are shown the sender has not sent any weather packets the latest 10 day(s).

<< 3 4 5 6 7 8 9 >>
Time Temp. Humidity Pressure Rain* Wind** Luminosity Snow
1788523562 29.44° C 30% 1023.6 hPa - - - -
1788521462 28.33° C 33% 1023.9 hPa - - - -
1788520562 28.33° C 35% 1024.1 hPa - - - -
1788519963 27.78° C 35% 1024.1 hPa - - - -
1788519062 27.22° C 38% 1024.3 hPa - - - -
1788517563 26.11° C 39% 1024.7 hPa - - - -
1788516662 25.56° C 39% 1024.9 hPa - - - -
1788512462 22.78° C 44% 1025.5 hPa - - - -
1788509162 22.22° C 50% 1025.4 hPa - - - -
1788507662 21.11° C 48% 1025.7 hPa - - - -
1788507062 20.56° C 49% 1025.8 hPa - - - -
1788505262 20.56° C 51% 1026.1 hPa - - - -
1788501962 20° C 52% 1026.2 hPa - - - -
1788499562 20° C 50% 1026.2 hPa - - - -
1788498963 20.56° C 50% 1026 hPa - - - -
1788497462 20° C 50% 1026.1 hPa - - - -
1788495362 20.56° C 49% 1026.3 hPa - - - -
1788492062 21.11° C 46% 1026.4 hPa - - - -
1788491162 21.11° C 46% 1026.5 hPa - - - -
1788488762 21.67° C 44% 1026.5 hPa - - - -
1788487262 21.67° C 45% 1026.6 hPa - - - -
1788485762 21.67° C 45% 1026.8 hPa - - - -
1788485463 21.67° C 45% 1026.9 hPa - - - -
1788481262 22.22° C 43% 1027.4 hPa - - - -
1788480662 22.22° C 42% 1027.5 hPa - - - -

* Rain since midnight (hover to see other rain measurements)
** Current wind speed in m/s (hover to see current wind gust speed)